Time;durP1;ratioP1;P1;durP2;ratioP2;P2;SDS_P1;SDS_P2;PMS_P1;PMS_P2;Temp;Humidity;BMP_temperature;BMP_pressure;BME280_temperature;BME280_humidity;BME280_pressure;Samples;Min_cycle;Max_cycle;Signal;HPM_P1;HPM_P2
2023/06/17 00:05:10;;;;;;;5.32;2.40;;;;;;;15.19;73.42;100936.53;15792379;28;20059;-59
2023/06/17 00:12:45;;;;;;;6.20;3.47;;;;;;;15.34;72.77;100917.16;15764739;28;20048;-59
2023/06/17 00:20:18;;;;;;;6.93;3.00;;;;;;;15.09;73.95;100925.50;15787044;28;20054;-56
2023/06/17 00:27:55;;;;;;;10.77;3.70;;;;;;;15.04;75.37;100919.97;15803562;28;20040;-58
2023/06/17 00:35:28;;;;;;;6.10;3.40;;;;;;;15.18;73.97;100907.84;15768090;28;20048;-57
2023/06/17 00:43:02;;;;;;;4.77;2.13;;;;;;;14.74;76.31;100903.88;15777212;28;20047;-54
2023/06/17 00:50:36;;;;;;;5.78;3.65;;;;;;;14.62;76.08;100906.56;15777856;28;20060;-58
2023/06/17 00:58:10;;;;;;;6.50;3.47;;;;;;;14.31;77.76;100880.63;15783365;28;20066;-57
2023/06/17 01:05:43;;;;;;;5.53;3.30;;;;;;;14.13;78.41;100916.63;15782649;28;20063;-55
2023/06/17 01:13:18;;;;;;;10.75;3.38;;;;;;;14.96;76.17;100913.03;15789326;28;20040;-57
2023/06/17 01:20:53;;;;;;;6.23;3.20;;;;;;;14.43;77.41;100907.66;15794350;28;20529;-56
2023/06/17 01:28:33;;;;;;;9.38;4.15;;;;;;;15.04;75.35;100915.38;15780107;28;20051;-57
2023/06/17 01:36:13;;;;;;;5.25;2.97;;;;;;;15.24;73.94;100896.09;15788102;28;20028;-55
2023/06/17 01:43:51;;;;;;;8.40;4.13;;;;;;;15.18;74.39;100904.34;15762777;28;20342;-55
2023/06/17 01:51:25;;;;;;;6.28;3.75;;;;;;;15.14;74.12;100903.16;15783866;28;20040;-57
2023/06/17 01:58:59;;;;;;;9.43;3.58;;;;;;;15.15;74.49;100893.97;15779726;28;20143;-57
2023/06/17 02:06:33;;;;;;;8.48;4.55;;;;;;;14.25;77.65;100903.16;15777703;28;20047;-54
2023/06/17 02:14:07;;;;;;;6.05;3.45;;;;;;;14.46;76.76;100899.09;15778402;28;20040;-56
2023/06/17 02:21:40;;;;;;;9.48;5.20;;;;;;;14.58;76.66;100891.03;15800613;28;20052;-53
2023/06/17 02:29:15;;;;;;;8.18;4.20;;;;;;;15.08;74.71;100877.91;15759570;28;20048;-55
2023/06/17 02:36:49;;;;;;;7.70;3.88;;;;;;;15.01;74.68;100880.72;15784753;28;20036;-54
2023/06/17 02:44:24;;;;;;;7.55;3.65;;;;;;;14.87;75.31;100882.00;15772577;28;20075;-57
2023/06/17 02:51:58;;;;;;;7.30;4.18;;;;;;;14.27;78.04;100884.84;15777121;28;20573;-53
2023/06/17 02:59:33;;;;;;;7.57;4.18;;;;;;;14.18;78.21;100883.53;15758833;28;20084;-54
2023/06/17 03:07:07;;;;;;;6.07;3.92;;;;;;;15.09;75.37;100890.34;15778506;28;20032;-54
2023/06/17 03:14:42;;;;;;;8.38;4.50;;;;;;;15.22;74.44;100890.09;15774119;28;20047;-56
2023/06/17 03:22:21;;;;;;;6.28;3.88;;;;;;;15.31;74.49;100885.16;15738812;23;20481;-52
2023/06/17 03:29:57;;;;;;;9.20;4.15;;;;;;;14.77;76.35;100884.47;15660678;28;20098;-50
2023/06/17 03:37:29;;;;;;;18.30;5.50;;;;;;;15.17;75.19;100876.47;15699089;28;20040;-52
2023/06/17 03:45:05;;;;;;;8.32;3.95;;;;;;;15.41;74.32;100874.53;15716177;28;20110;-51
2023/06/17 03:52:38;;;;;;;7.85;4.70;;;;;;;15.55;73.75;100889.44;15696539;28;20051;-51
2023/06/17 04:00:13;;;;;;;;;;;;;;;14.68;77.18;100899.38;15735624;28;20040;-52
2023/06/17 04:07:50;;;;;;;8.40;3.58;;;;;;;14.49;78.45;100895.94;15785799;28;19986;-50
2023/06/17 04:15:24;;;;;;;7.45;4.00;;;;;;;14.46;79.34;100899.94;15727620;28;20048;-52
2023/06/17 04:22:57;;;;;;;6.60;4.38;;;;;;;14.72;78.31;100895.16;15727709;28;20472;-52
2023/06/17 04:30:32;;;;;;;8.53;4.70;;;;;;;15.05;77.04;100894.56;15727087;28;20076;-52
2023/06/17 04:38:07;;;;;;;9.88;4.55;;;;;;;15.08;76.84;100896.81;15726635;28;20794;-51
2023/06/17 04:45:41;;;;;;;10.27;5.80;;;;;;;15.11;77.17;100911.72;15725053;28;20390;-51
2023/06/17 04:53:15;;;;;;;7.75;5.07;;;;;;;15.28;76.71;100910.78;15725032;28;20465;-54
2023/06/17 05:00:49;;;;;;;10.98;5.68;;;;;;;15.44;75.92;100905.72;15708216;28;20451;-52
2023/06/17 05:08:26;;;;;;;8.43;4.78;;;;;;;15.95;74.41;100912.19;15707356;28;20067;-52
2023/06/17 05:16:01;;;;;;;;;;;;;;;15.94;75.45;100902.41;15707054;28;20040;-51
2023/06/17 05:23:36;;;;;;;8.63;4.72;;;;;;;16.07;75.33;100904.81;15720276;28;19997;-55
2023/06/17 05:31:11;;;;;;;7.45;4.35;;;;;;;16.37;74.39;100911.84;15723232;28;20104;-54
2023/06/17 05:38:44;;;;;;;8.68;5.03;;;;;;;16.29;74.76;100910.38;15723684;28;20404;-53
2023/06/17 05:46:19;;;;;;;6.47;4.30;;;;;;;16.41;74.86;100910.28;15722290;28;20075;-56
2023/06/17 05:53:53;;;;;;;6.47;4.50;;;;;;;16.66;73.53;100921.56;15705359;28;20041;-53
2023/06/17 06:01:27;;;;;;;12.38;5.15;;;;;;;16.93;73.26;100929.91;15705555;28;20075;-52
2023/06/17 06:09:01;;;;;;;9.25;4.90;;;;;;;16.84;73.39;100934.09;15721840;28;20143;-56
2023/06/17 06:16:36;;;;;;;10.80;4.97;;;;;;;16.80;73.99;100932.94;15704499;28;20044;-55
2023/06/17 06:24:09;;;;;;;10.23;5.15;;;;;;;16.76;73.00;100900.09;15738617;28;20086;-55
2023/06/17 06:31:46;;;;;;;12.15;6.30;;;;;;;17.24;72.98;100938.47;15720859;28;20059;-52
2023/06/17 06:39:21;;;;;;;12.75;6.28;;;;;;;16.91;73.11;100940.16;15719626;28;20124;-55
2023/06/17 06:46:56;;;;;;;10.77;6.25;;;;;;;17.36;72.91;100950.06;15718374;28;20098;-54
2023/06/17 06:54:29;;;;;;;10.15;5.85;;;;;;;17.15;73.05;100951.63;15702012;28;20170;-54
2023/06/17 07:02:03;;;;;;;;;;;;;;;17.11;73.28;100960.53;15719055;28;20424;-54
2023/06/17 07:09:36;;;;;;;9.68;5.88;;;;;;;17.50;73.37;100953.22;15701147;28;19924;-56
2023/06/17 07:17:11;;;;;;;10.52;5.18;;;;;;;16.59;73.72;100927.13;15700759;28;20124;-54
2023/06/17 07:24:45;;;;;;;10.52;5.07;;;;;;;16.96;72.28;100950.25;15717837;28;20504;-53
2023/06/17 07:32:20;;;;;;;12.10;4.90;;;;;;;17.29;72.59;100961.06;15702557;28;20151;-54
2023/06/17 07:39:54;;;;;;;8.43;5.13;;;;;;;18.05;71.87;100960.47;15726886;28;20493;-55
2023/06/17 07:47:31;;;;;;;7.40;4.82;;;;;;;17.71;71.44;100954.31;15730083;28;20127;-53
2023/06/17 07:55:05;;;;;;;7.47;4.22;;;;;;;17.80;71.56;100959.06;15728889;28;20097;-57
2023/06/17 08:02:40;;;;;;;8.25;4.70;;;;;;;18.19;70.68;100960.88;15739385;28;20067;-56
2023/06/17 08:10:13;;;;;;;9.00;4.95;;;;;;;18.65;68.10;100953.16;15760097;28;20052;-54
2023/06/17 08:17:50;;;;;;;6.32;3.75;;;;;;;18.81;67.40;100952.25;15727938;28;20045;-54
2023/06/17 08:25:23;;;;;;;5.30;2.90;;;;;;;18.77;65.81;100951.13;15726952;28;20055;-56
2023/06/17 08:32:57;;;;;;;5.35;3.25;;;;;;;19.59;64.22;100941.59;15726493;28;20123;-53
2023/06/17 08:40:30;;;;;;;6.78;3.55;;;;;;;19.24;64.26;100953.91;15726928;28;20045;-56
2023/06/17 08:48:05;;;;;;;8.05;3.65;;;;;;;19.13;66.13;100951.41;15743560;28;20143;-52
2023/06/17 08:55:38;;;;;;;4.70;3.13;;;;;;;19.65;65.83;100954.19;15705508;28;20045;-53
2023/06/17 09:03:15;;;;;;;4.93;3.30;;;;;;;19.93;64.15;100952.13;15725622;28;20060;-54
2023/06/17 09:10:48;;;;;;;8.88;3.03;;;;;;;20.49;62.73;100958.53;15726046;28;20048;-54
2023/06/17 09:18:22;;;;;;;6.93;3.10;;;;;;;20.97;61.17;100959.09;15744369;28;20103;-53
2023/06/17 09:26:05;;;;;;;5.35;2.80;;;;;;;20.88;61.22;100961.53;15807891;22;20443;-51
2023/06/17 09:33:44;;;;;;;5.18;2.85;;;;;;;21.02;60.41;100958.25;15840276;28;20279;-53
2023/06/17 09:41:18;;;;;;;6.10;3.25;;;;;;;20.60;60.75;100962.91;15866859;28;20078;-52
2023/06/17 09:48:53;;;;;;;5.07;3.13;;;;;;;20.73;60.51;100963.47;15847702;28;20543;-50
2023/06/17 09:56:27;;;;;;;5.90;3.42;;;;;;;20.28;59.93;100952.19;15867039;28;20450;-50
2023/06/17 10:04:01;;;;;;;6.57;3.45;;;;;;;21.38;59.87;100924.38;15855405;27;20140;-50
2023/06/17 10:11:35;;;;;;;8.65;3.30;;;;;;;21.68;57.76;100930.00;15847500;28;20087;-52
2023/06/17 10:19:12;;;;;;;5.90;3.30;;;;;;;22.77;55.54;100940.81;15847072;28;20043;-49
2023/06/17 10:26:50;;;;;;;8.00;2.92;;;;;;;21.54;56.19;100932.50;15828063;28;20043;-49
2023/06/17 10:34:24;;;;;;;4.53;2.65;;;;;;;21.88;57.26;100917.06;15846415;28;20104;-47
2023/06/17 10:41:59;;;;;;;4.15;2.65;;;;;;;22.55;56.21;100922.13;15829684;28;20055;-53
2023/06/17 10:49:40;;;;;;;4.18;2.83;;;;;;;22.54;55.28;100926.78;15862695;28;20531;-47
2023/06/17 10:57:15;;;;;;;4.32;2.65;;;;;;;22.49;54.32;100923.28;15861940;28;20039;-50
2023/06/17 11:04:51;;;;;;;6.55;2.67;;;;;;;22.65;55.39;100922.84;15860029;28;20483;-51
2023/06/17 11:12:24;;;;;;;4.40;2.92;;;;;;;22.35;55.20;100906.69;15861018;27;20072;-47
2023/06/17 11:20:00;;;;;;;4.45;2.28;;;;;;;22.67;53.93;100900.69;15823488;28;20055;-48
2023/06/17 11:27:34;;;;;;;6.65;3.75;;;;;;;21.82;55.58;100890.88;15845427;28;20056;-49
2023/06/17 11:35:09;;;;;;;6.38;3.75;;;;;;;20.69;59.26;100905.09;15819321;28;20052;-53
2023/06/17 11:42:46;;;;;;;8.88;3.28;;;;;;;20.32;63.16;100961.47;15840766;28;20564;-48
2023/06/17 11:50:21;;;;;;;3.13;1.83;;;;;;;16.76;70.39;100994.97;15810471;28;20077;-50
2023/06/17 11:57:57;;;;;;;2.88;1.77;;;;;;;17.31;71.53;100991.50;15830609;28;20101;-49
2023/06/17 12:05:32;;;;;;;6.35;1.80;;;;;;;17.46;71.99;100992.78;15854171;28;20484;-48
2023/06/17 12:13:05;;;;;;;4.05;2.15;;;;;;;17.24;70.84;100980.00;15872128;28;20473;-50
2023/06/17 12:20:50;;;;;;;2.25;1.50;;;;;;;17.43;71.65;100977.00;15887385;28;20036;-52
2023/06/17 12:28:23;;;;;;;2.92;1.70;;;;;;;17.57;69.89;100979.09;15863580;28;20118;-52
2023/06/17 12:36:00;;;;;;;3.60;1.77;;;;;;;17.43;70.65;100979.72;15862532;28;20132;-51
2023/06/17 12:43:34;;;;;;;2.28;1.48;;;;;;;17.85;69.71;100961.84;15868098;28;20039;-49
2023/06/17 12:51:08;;;;;;;1.90;1.50;;;;;;;17.46;69.90;100943.94;15845322;28;20048;-49
2023/06/17 12:58:45;;;;;;;2.55;1.60;;;;;;;18.11;69.83;100948.56;15863472;28;20112;-51
2023/06/17 13:06:20;;;;;;;2.00;1.38;;;;;;;18.61;68.84;100936.56;15848734;27;20047;-50
2023/06/17 13:13:53;;;;;;;2.88;1.83;;;;;;;19.01;69.93;100936.06;15852009;28;20046;-51
2023/06/17 13:21:27;;;;;;;2.67;1.80;;;;;;;19.20;69.76;100919.31;15862982;28;20048;-48
2023/06/17 13:29:02;;;;;;;14.30;1.95;;;;;;;20.18;68.24;100911.28;15827430;28;20137;-49
2023/06/17 13:36:39;;;;;;;3.92;1.90;;;;;;;20.36;67.50;100899.88;15842679;28;20035;-50
2023/06/17 13:44:12;;;;;;;3.70;1.98;;;;;;;21.74;65.48;100885.19;15855813;28;20071;-52
2023/06/17 13:51:50;;;;;;;3.50;2.30;;;;;;;21.45;65.14;100885.00;15836535;28;20040;-48
2023/06/17 13:59:23;;;;;;;5.65;2.65;;;;;;;22.14;62.95;100871.25;15841638;28;20039;-49
2023/06/17 14:06:57;;;;;;;4.25;1.92;;;;;;;22.86;61.41;100876.16;15825360;28;20097;-47
2023/06/17 14:14:30;;;;;;;5.60;2.13;;;;;;;21.97;58.40;100873.56;15843286;28;20085;-52
2023/06/17 14:22:06;;;;;;;2.60;1.70;;;;;;;22.65;62.34;100894.66;15861318;28;20039;-47
2023/06/17 14:29:39;;;;;;;3.10;2.15;;;;;;;22.08;58.05;100904.38;15843681;28;20442;-47
2023/06/17 14:37:13;;;;;;;5.38;1.85;;;;;;;22.29;57.85;100894.13;15832988;28;20520;-47
2023/06/17 14:44:46;;;;;;;3.63;1.98;;;;;;;21.78;58.24;100895.25;15855983;28;20055;-47
2023/06/17 14:52:20;;;;;;;2.67;1.30;;;;;;;22.36;56.34;100900.91;15825756;28;20131;-52
2023/06/17 14:59:54;;;;;;;3.22;1.40;;;;;;;21.56;55.43;100897.56;15825281;28;20050;-48
2023/06/17 15:07:28;;;;;;;2.55;1.30;;;;;;;21.83;56.36;100900.69;15840430;27;20516;-50
2023/06/17 15:15:01;;;;;;;2.22;1.52;;;;;;;21.45;57.10;100893.19;15827048;28;20044;-51
2023/06/17 15:22:35;;;;;;;2.15;1.63;;;;;;;21.62;59.38;100899.97;15843067;28;20065;-50
2023/06/17 15:30:09;;;;;;;3.28;2.05;;;;;;;21.59;58.97;100903.28;15843067;28;20036;-49
2023/06/17 15:37:43;;;;;;;4.72;1.70;;;;;;;21.53;58.76;100907.09;15841748;28;20055;-50
2023/06/17 15:45:16;;;;;;;3.50;1.77;;;;;;;21.43;58.22;100909.06;15814078;28;20035;-51
2023/06/17 15:52:51;;;;;;;3.15;1.88;;;;;;;;;;15852670;28;20054;-49
2023/06/17 16:00:25;;;;;;;3.15;1.88;;;;;;;21.28;55.60;100907.19;15847989;28;20044;-49
2023/06/17 16:07:59;;;;;;;3.65;1.95;;;;;;;21.87;58.58;100907.25;15868547;28;20059;-49
2023/06/17 16:15:31;;;;;;;2.70;1.88;;;;;;;21.41;58.96;100903.06;15867342;28;20106;-49
2023/06/17 16:23:05;;;;;;;2.10;1.83;;;;;;;22.07;58.89;100905.47;15873254;27;20104;-48
2023/06/17 16:30:38;;;;;;;5.13;1.85;;;;;;;21.37;58.67;100902.81;15830618;27;20442;-53
2023/06/17 16:38:12;;;;;;;3.60;2.10;;;;;;;21.11;59.24;100902.84;15860454;27;20404;-52
2023/06/17 16:45:45;;;;;;;3.10;2.05;;;;;;;21.50;59.75;100901.41;15850239;28;20491;-48
2023/06/17 16:53:19;;;;;;;;;;;;;;;21.03;60.17;100908.88;15870131;28;20039;-50
2023/06/17 17:00:52;;;;;;;3.17;2.10;;;;;;;21.18;58.80;100910.75;15845310;28;20277;-47
2023/06/17 17:08:26;;;;;;;2.58;1.77;;;;;;;21.43;58.35;100911.78;15865563;28;20072;-51
2023/06/17 17:15:59;;;;;;;3.08;1.70;;;;;;;21.69;57.39;100901.59;15847113;28;20085;-48
2023/06/17 17:23:33;;;;;;;3.85;2.30;;;;;;;21.38;59.25;100904.44;15868029;28;20043;-50
2023/06/17 17:31:05;;;;;;;4.10;2.28;;;;;;;21.38;58.17;100907.16;15849397;28;20096;-50
2023/06/17 17:38:39;;;;;;;;;;;;;;;21.24;58.63;100895.97;15832466;28;20131;-49
2023/06/17 17:46:13;;;;;;;4.07;2.50;;;;;;;21.44;58.84;100897.84;15848305;28;19924;-53
2023/06/17 17:53:47;;;;;;;;;;;;;;;21.25;59.74;100900.34;15870235;28;20129;-48
2023/06/17 18:01:19;;;;;;;3.28;2.13;;;;;;;21.01;61.57;100900.13;15869491;28;20018;-51
2023/06/17 18:08:53;;;;;;;4.30;2.22;;;;;;;20.92;62.21;100909.97;15856640;28;20092;-50
2023/06/17 18:16:26;;;;;;;7.53;4.13;;;;;;;20.79;63.08;100916.78;15846009;28;20032;-50
2023/06/17 18:24:02;;;;;;;;;;;;;;;20.46;64.17;100928.22;15862912;28;20096;-48
2023/06/17 18:31:35;;;;;;;5.47;2.83;;;;;;;20.49;64.32;100925.81;15862806;28;20327;-48
2023/06/17 18:39:10;;;;;;;4.00;2.50;;;;;;;20.47;63.78;100919.81;15845100;28;20052;-48
2023/06/17 18:46:43;;;;;;;3.05;2.20;;;;;;;19.89;65.31;100913.69;15827601;28;20135;-49
2023/06/17 18:54:17;;;;;;;5.43;2.90;;;;;;;19.96;65.63;100918.84;15863238;28;20086;-52
2023/06/17 19:01:50;;;;;;;6.88;3.30;;;;;;;20.03;65.39;100924.88;15842298;28;20047;-51
2023/06/17 19:09:24;;;;;;;5.25;3.83;;;;;;;19.84;65.92;100930.81;15863910;27;20115;-51
2023/06/17 19:16:58;;;;;;;5.38;3.72;;;;;;;19.73;66.31;100929.16;15859936;28;20127;-52
2023/06/17 19:24:32;;;;;;;7.32;3.38;;;;;;;19.51;66.52;100936.66;15858711;28;20036;-49
2023/06/17 19:32:05;;;;;;;5.47;3.63;;;;;;;19.25;67.05;100931.06;15831503;28;20424;-48
2023/06/17 19:39:40;;;;;;;5.13;2.78;;;;;;;19.15;67.05;100936.44;15840837;28;20450;-53
2023/06/17 19:47:14;;;;;;;9.45;4.10;;;;;;;18.84;68.35;100949.03;15835980;28;20043;-52
2023/06/17 19:54:48;;;;;;;12.85;7.90;;;;;;;18.67;68.55;100954.56;15893792;28;20040;-52
2023/06/17 20:02:21;;;;;;;8.32;4.60;;;;;;;18.55;68.50;100959.31;15864648;28;20074;-49
2023/06/17 20:09:55;;;;;;;8.75;3.70;;;;;;;18.21;69.53;100947.84;15858439;28;20101;-48
2023/06/17 20:17:28;;;;;;;6.90;3.90;;;;;;;18.11;69.35;100962.16;15834930;28;20092;-51
2023/06/17 20:25:02;;;;;;;4.97;2.88;;;;;;;18.05;70.28;100974.06;15849866;28;20108;-47
2023/06/17 20:32:35;;;;;;;5.30;3.28;;;;;;;17.89;70.08;100973.03;15859774;28;20055;-46
2023/06/17 20:40:10;;;;;;;6.28;3.92;;;;;;;17.60;71.38;100984.03;15839059;28;20507;-54
2023/06/17 20:47:45;;;;;;;7.10;4.00;;;;;;;17.69;70.59;100976.28;15849817;28;20067;-46
2023/06/17 20:55:19;;;;;;;5.28;3.60;;;;;;;17.65;70.13;100985.19;15861966;27;20040;-49
2023/06/17 21:02:52;;;;;;;6.72;4.20;;;;;;;17.69;69.30;100978.19;15834111;28;20082;-51
2023/06/17 21:10:26;;;;;;;5.65;3.90;;;;;;;17.56;69.51;100985.59;15864631;28;20382;-49
2023/06/17 21:17:59;;;;;;;10.65;4.70;;;;;;;17.25;70.17;100986.22;15858402;27;20043;-54
2023/06/17 21:25:33;;;;;;;;;;;;;;;17.17;70.70;100982.06;15788333;23;20048;-51
2023/06/17 21:33:06;;;;;;;6.47;4.25;;;;;;;17.18;69.83;100980.19;15767799;28;19926;-53
2023/06/17 21:40:40;;;;;;;10.13;4.28;;;;;;;16.94;70.25;100990.38;15783542;28;20101;-52
2023/06/17 21:48:13;;;;;;;7.05;4.63;;;;;;;16.81;70.72;100994.22;15763058;28;20546;-51
2023/06/17 21:55:47;;;;;;;;;;;;;;;16.79;70.66;100990.94;15784305;28;20036;-52
2023/06/17 22:03:20;;;;;;;10.38;5.43;;;;;;;16.49;71.42;100989.28;15767799;28;20408;-54
2023/06/17 22:10:56;;;;;;;7.68;5.07;;;;;;;16.65;70.41;100990.41;15784155;28;20040;-54
2023/06/17 22:18:28;;;;;;;7.88;4.88;;;;;;;16.52;70.55;100991.53;15801261;28;20052;-54
2023/06/17 22:26:02;;;;;;;5.97;4.73;;;;;;;16.33;71.28;100993.63;15837738;28;20435;-55
2023/06/17 22:33:35;;;;;;;9.95;4.90;;;;;;;16.16;70.91;100998.16;15800826;28;20062;-53
2023/06/17 22:41:09;;;;;;;7.77;4.77;;;;;;;16.05;71.34;101001.72;15764528;28;20070;-52
2023/06/17 22:48:41;;;;;;;9.00;5.22;;;;;;;16.10;70.88;101006.44;15793129;28;20036;-52
2023/06/17 22:56:15;;;;;;;8.70;5.13;;;;;;;16.04;71.10;101008.19;15781029;28;20040;-51
2023/06/17 23:03:48;;;;;;;7.43;4.43;;;;;;;15.90;71.26;100991.41;15763346;28;20063;-51
2023/06/17 23:11:23;;;;;;;;;;;;;;;15.79;70.83;100987.66;15780530;28;20051;-53
2023/06/17 23:18:55;;;;;;;5.75;3.63;;;;;;;15.86;70.48;100987.53;15792027;28;19926;-55
2023/06/17 23:26:29;;;;;;;5.20;3.67;;;;;;;15.62;71.05;100983.19;15829781;28;20110;-52
2023/06/17 23:34:05;;;;;;;7.68;4.20;;;;;;;15.58;70.90;100985.56;15797338;28;20298;-53
2023/06/17 23:41:43;;;;;;;5.45;3.38;;;;;;;15.47;71.02;100983.69;15779297;28;20113;-53
2023/06/17 23:49:15;;;;;;;8.57;4.28;;;;;;;15.35;71.33;100978.28;15796455;28;20044;-53
2023/06/17 23:56:49;;;;;;;9.50;4.30;;;;;;;15.37;70.82;100975.34;15796782;28;20040;-54
